createdAt,value
2023-03-05T00:00:49.105Z,22.15
2023-03-05T00:03:15.611Z,23.27
2023-03-05T00:05:42.072Z,24.23
2023-03-05T00:08:08.536Z,21.60
2023-03-05T00:10:34.976Z,18.65
2023-03-05T00:13:01.428Z,20.65
2023-03-05T00:15:28.068Z,28.20
2023-03-05T00:17:54.512Z,20.75
2023-03-05T00:20:20.949Z,21.70
2023-03-05T00:22:47.655Z,21.52
2023-03-05T00:25:14.078Z,25.80
2023-03-05T00:27:40.637Z,22.75
2023-03-05T00:30:08.018Z,20.92
2023-03-05T00:32:36.385Z,25.20
2023-03-05T00:35:03.002Z,23.73
2023-03-05T00:37:29.508Z,22.13
2023-03-05T00:39:56.035Z,19.88
2023-03-05T00:42:22.555Z,22.35
2023-03-05T00:44:49.011Z,22.10
2023-03-05T00:47:18.507Z,23.38
2023-03-05T00:49:45.165Z,27.33
2023-03-05T00:52:11.685Z,22.50
2023-03-05T00:54:38.182Z,22.08
2023-03-05T00:57:05.733Z,19.92
2023-03-05T00:59:32.201Z,25.13
2023-03-05T01:01:58.940Z,21.33
2023-03-05T01:04:25.417Z,24.67
2023-03-05T01:06:51.945Z,22.10
2023-03-05T01:09:18.929Z,25.52
2023-03-05T01:11:45.401Z,21.90
2023-03-05T01:14:11.855Z,25.10
2023-03-05T01:16:38.459Z,22.45
2023-03-05T01:19:05.352Z,27.25
2023-03-05T01:21:32.343Z,23.00
2023-03-05T01:23:59.008Z,24.10
2023-03-05T01:26:25.505Z,24.90
2023-03-05T01:28:51.956Z,23.48
2023-03-05T01:31:18.752Z,26.25
2023-03-05T01:33:45.354Z,26.42
2023-03-05T01:36:15.479Z,24.73
2023-03-05T01:38:43.414Z,24.77
2023-03-05T01:41:10.834Z,21.58
2023-03-05T01:43:37.338Z,22.73
2023-03-05T01:46:12.915Z,21.58
2023-03-05T01:48:40.796Z,22.77
2023-03-05T01:51:07.516Z,20.70
2023-03-05T01:53:33.974Z,25.05
2023-03-05T01:56:00.510Z,22.15
2023-03-05T01:58:27.224Z,22.75
2023-03-05T02:00:54.423Z,24.88
2023-03-05T02:03:22.731Z,25.85
2023-03-05T02:05:49.752Z,24.95
2023-03-05T02:08:18.948Z,24.45
2023-03-05T02:10:48.405Z,22.55
2023-03-05T02:13:17.494Z,26.70
2023-03-05T02:15:44.327Z,22.95
2023-03-05T02:18:11.242Z,24.83
2023-03-05T02:20:43.801Z,23.80
2023-03-05T02:23:10.327Z,22.95
2023-03-05T02:25:36.790Z,24.40
2023-03-05T02:28:08.232Z,24.45
2023-03-05T02:30:35.508Z,26.13
2023-03-05T02:33:02.010Z,23.67
2023-03-05T02:35:28.612Z,25.05
2023-03-05T02:37:55.094Z,24.13
2023-03-05T02:40:21.883Z,27.05
2023-03-05T02:42:49.097Z,26.58
2023-03-05T02:45:16.194Z,30.13
2023-03-05T02:47:42.921Z,22.48
2023-03-05T02:50:11.413Z,28.17
2023-03-05T02:52:38.528Z,25.38
2023-03-05T02:55:09.474Z,24.70
2023-03-05T02:57:37.123Z,22.50
2023-03-05T03:00:05.639Z,25.40
2023-03-05T03:02:32.454Z,26.33
2023-03-05T03:04:58.966Z,25.67
2023-03-05T03:07:25.535Z,25.63
2023-03-05T03:09:52.082Z,25.40
2023-03-05T03:12:18.518Z,22.83
2023-03-05T03:14:44.959Z,24.90
2023-03-05T03:17:17.318Z,26.27
2023-03-05T03:19:44.983Z,24.58
2023-03-05T03:22:13.032Z,25.50
2023-03-05T03:24:40.949Z,25.17
2023-03-05T03:27:08.166Z,25.60
2023-03-05T03:29:34.826Z,21.10
2023-03-05T03:32:01.367Z,22.92
2023-03-05T03:34:28.022Z,27.20
2023-03-05T03:36:54.750Z,24.55
2023-03-05T03:39:22.230Z,28.25
2023-03-05T03:41:51.050Z,25.38
2023-03-05T03:44:19.042Z,22.80
2023-03-05T03:46:46.324Z,24.30
2023-03-05T03:49:19.266Z,26.77
2023-03-05T03:51:46.453Z,22.35
2023-03-05T03:54:14.199Z,22.33
2023-03-05T03:56:40.711Z,24.73
2023-03-05T03:59:07.596Z,23.95
2023-03-05T04:01:34.209Z,21.05
2023-03-05T04:04:00.880Z,22.55
2023-03-05T04:06:27.496Z,21.80
2023-03-05T04:08:54.088Z,19.92
2023-03-05T04:11:20.523Z,23.17
2023-03-05T04:13:47.496Z,19.80
2023-03-05T04:16:14.783Z,26.10
2023-03-05T04:18:41.958Z,19.88
2023-03-05T04:21:08.524Z,21.23
2023-03-05T04:23:35.426Z,22.42
2023-03-05T04:26:01.998Z,22.40
2023-03-05T04:28:28.614Z,24.08
2023-03-05T04:30:55.140Z,20.00
2023-03-05T04:33:21.667Z,21.75
2023-03-05T04:35:48.298Z,23.60
2023-03-05T04:38:14.765Z,19.02
2023-03-05T04:40:41.442Z,22.98
2023-03-05T04:43:08.147Z,22.83
2023-03-05T04:45:34.730Z,22.42
2023-03-05T04:48:01.217Z,22.15
2023-03-05T04:50:27.694Z,24.35
2023-03-05T04:52:54.397Z,25.42
2023-03-05T04:55:20.892Z,22.40
2023-03-05T04:57:47.402Z,23.70
2023-03-05T05:00:15.446Z,22.05
2023-03-05T05:02:43.773Z,22.88
2023-03-05T05:05:12.994Z,23.93
2023-03-05T05:07:39.487Z,22.73
2023-03-05T05:10:08.021Z,30.55
2023-03-05T05:12:35.031Z,31.00
2023-03-05T05:15:01.799Z,32.80
2023-03-05T05:17:32.865Z,33.00
2023-03-05T05:20:06.438Z,26.80
2023-03-05T05:22:33.335Z,27.35
2023-03-05T05:24:59.912Z,28.15
2023-03-05T05:27:26.396Z,33.30
2023-03-05T05:29:53.041Z,27.65
2023-03-05T05:32:21.110Z,28.20
2023-03-05T05:34:48.227Z,29.50
2023-03-05T05:37:14.815Z,31.48
2023-03-05T05:39:41.305Z,30.85
2023-03-05T05:42:07.841Z,29.65
2023-03-05T05:44:34.864Z,35.78
2023-03-05T05:47:01.752Z,33.15
2023-03-05T05:49:28.297Z,31.73
2023-03-05T05:51:54.752Z,33.38
2023-03-05T05:54:21.275Z,31.10
2023-03-05T05:56:47.767Z,36.70
2023-03-05T05:59:14.268Z,34.17
2023-03-05T06:01:40.842Z,34.00
2023-03-05T06:04:07.640Z,32.58
2023-03-05T06:06:34.966Z,37.25
2023-03-05T06:09:01.968Z,34.78
2023-03-05T06:11:28.612Z,34.72
2023-03-05T06:13:55.103Z,34.75
2023-03-05T06:16:23.868Z,35.40
2023-03-05T06:18:51.650Z,35.55
2023-03-05T06:21:19.749Z,29.70
2023-03-05T06:23:47.663Z,26.77
2023-03-05T06:26:16.876Z,32.83
2023-03-05T06:28:43.410Z,30.13
2023-03-05T06:31:21.982Z,29.40
2023-03-05T06:33:49.763Z,34.25
2023-03-05T06:36:17.704Z,32.80
2023-03-05T06:38:44.497Z,32.45
2023-03-05T06:41:13.885Z,34.50
2023-03-05T06:43:42.073Z,38.72
2023-03-05T06:46:12.923Z,37.03
2023-03-05T06:48:39.772Z,34.60
2023-03-05T06:51:13.412Z,37.45
2023-03-05T06:53:40.021Z,35.25
2023-03-05T06:56:06.630Z,34.03
2023-03-05T06:58:33.160Z,36.13
2023-03-05T07:00:59.653Z,34.25
2023-03-05T07:03:26.103Z,31.08
2023-03-05T07:05:52.514Z,33.97
2023-03-05T07:08:18.946Z,34.20
2023-03-05T07:10:45.485Z,34.67
2023-03-05T07:13:11.940Z,35.30
2023-03-05T07:15:39.174Z,37.40
2023-03-05T07:18:05.765Z,33.75
2023-03-05T07:20:36.948Z,34.05
2023-03-05T07:23:03.897Z,36.47
2023-03-05T07:25:30.868Z,31.50
2023-03-05T07:27:57.547Z,31.90
2023-03-05T07:30:23.974Z,31.92
2023-03-05T07:32:50.423Z,32.25
2023-03-05T07:35:16.901Z,31.00
2023-03-05T07:37:43.377Z,25.30
2023-03-05T07:40:11.904Z,29.83
2023-03-05T07:42:38.418Z,31.33
2023-03-05T07:45:14.361Z,36.03
2023-03-05T07:47:40.759Z,32.50
2023-03-05T07:50:07.671Z,29.80
2023-03-05T07:52:34.154Z,31.42
2023-03-05T07:55:00.762Z,30.70
2023-03-05T07:57:27.254Z,29.10
2023-03-05T07:59:53.708Z,30.63
2023-03-05T08:02:20.701Z,28.27
2023-03-05T08:04:47.156Z,30.17
2023-03-05T08:07:16.885Z,25.67
2023-03-05T08:09:43.316Z,26.67
2023-03-05T08:12:10.364Z,30.30
2023-03-05T08:14:37.881Z,28.98
2023-03-05T08:17:05.690Z,26.67
2023-03-05T08:19:32.931Z,26.48
2023-03-05T08:21:59.465Z,22.90
2023-03-05T08:24:29.432Z,26.70
2023-03-05T08:26:59.093Z,25.30
2023-03-05T08:29:26.080Z,22.75
2023-03-05T08:31:53.557Z,23.33
2023-03-05T08:34:20.900Z,23.63
2023-03-05T08:36:47.542Z,26.73
2023-03-05T08:39:13.990Z,19.85
2023-03-05T08:41:40.649Z,22.73
2023-03-05T08:44:07.058Z,20.13
2023-03-05T08:46:33.555Z,20.10
2023-03-05T08:49:00.384Z,21.10
2023-03-05T08:51:27.373Z,22.42
2023-03-05T08:53:55.306Z,22.30
2023-03-05T08:56:21.797Z,16.48
2023-03-05T08:58:48.427Z,21.27
2023-03-05T09:01:15.222Z,22.45
2023-03-05T09:03:41.666Z,19.20
2023-03-05T09:06:10.179Z,22.67
2023-03-05T09:08:36.847Z,18.45
2023-03-05T09:11:05.232Z,19.70
2023-03-05T09:13:31.792Z,21.00
2023-03-05T09:16:00.603Z,17.95
2023-03-05T09:18:27.389Z,16.73
2023-03-05T09:20:54.324Z,14.75
2023-03-05T09:23:21.195Z,15.07
2023-03-05T09:25:47.684Z,15.57
2023-03-05T09:28:14.270Z,15.55
2023-03-05T09:30:41.121Z,15.77
2023-03-05T09:33:07.908Z,13.93
2023-03-05T09:35:35.764Z,14.55
2023-03-05T09:38:02.989Z,17.77
2023-03-05T09:40:44.876Z,29.52
2023-03-05T09:43:44.251Z,17.40
2023-03-05T09:46:20.906Z,13.80
2023-03-05T09:49:10.440Z,13.02
2023-03-05T09:51:40.271Z,11.73
2023-03-05T09:54:13.911Z,14.30
2023-03-05T09:56:47.676Z,13.93
2023-03-05T09:59:28.443Z,15.48
2023-03-05T10:02:03.491Z,15.00
2023-03-05T10:04:46.740Z,14.73
2023-03-05T10:07:34.690Z,12.93
2023-03-05T10:10:05.486Z,13.73
2023-03-05T10:13:15.101Z,13.23
2023-03-05T10:15:51.925Z,13.85
2023-03-05T10:18:41.913Z,14.18
2023-03-05T10:21:18.528Z,13.57
2023-03-05T10:23:54.715Z,15.32
2023-03-05T10:26:38.039Z,13.80
2023-03-05T10:29:10.529Z,11.63
2023-03-05T10:31:48.555Z,13.07
2023-03-05T10:34:39.738Z,13.30
2023-03-05T10:37:22.936Z,18.40
2023-03-05T10:39:56.845Z,12.05
2023-03-05T10:42:37.753Z,13.45
2023-03-05T10:45:17.124Z,22.27
2023-03-05T10:47:56.157Z,12.10
2023-03-05T10:50:22.549Z,12.85
2023-03-05T10:52:55.331Z,11.15
2023-03-05T10:55:22.268Z,10.85
2023-03-05T10:57:48.706Z,12.20
2023-03-05T11:00:24.132Z,17.20
2023-03-05T11:02:57.940Z,11.13
2023-03-05T11:05:42.624Z,11.65
2023-03-05T11:08:33.353Z,11.07
2023-03-05T11:11:11.129Z,11.23
2023-03-05T11:13:44.317Z,12.70
2023-03-05T11:16:19.962Z,11.32
2023-03-05T11:18:47.742Z,10.23
2023-03-05T11:21:27.439Z,12.80
2023-03-05T11:24:08.975Z,10.30
2023-03-05T11:26:35.692Z,12.05
2023-03-05T11:29:04.794Z,9.38
2023-03-05T11:31:33.170Z,10.18
2023-03-05T11:34:23.576Z,8.07
2023-03-05T11:36:53.087Z,10.45
2023-03-05T11:39:24.521Z,10.40
2023-03-05T11:41:58.011Z,9.70
2023-03-05T11:44:34.159Z,8.32
2023-03-05T11:47:05.030Z,8.70
2023-03-05T11:49:34.805Z,8.68
2023-03-05T11:52:28.208Z,9.07
2023-03-05T11:55:07.806Z,9.32
2023-03-05T11:57:49.019Z,8.63
2023-03-05T12:00:18.015Z,7.72
2023-03-05T12:02:46.665Z,10.63
2023-03-05T12:05:17.053Z,7.47
2023-03-05T12:07:48.231Z,10.50
2023-03-05T12:10:17.667Z,8.63
2023-03-05T12:15:22.637Z,10.32
2023-03-05T12:18:15.977Z,9.50
2023-03-05T12:20:49.016Z,8.30
2023-03-05T12:23:21.145Z,10.63
2023-03-05T12:25:50.384Z,9.32
2023-03-05T12:30:44.789Z,9.77
2023-03-05T12:33:31.601Z,11.05
2023-03-05T12:36:19.357Z,11.43
2023-03-05T12:38:51.783Z,12.68
2023-03-05T12:41:26.816Z,10.02
2023-03-05T12:44:06.633Z,8.98
2023-03-05T12:46:41.620Z,10.15
2023-03-05T12:49:20.302Z,8.15
2023-03-05T12:51:48.255Z,7.85
2023-03-05T12:54:27.041Z,8.35
2023-03-05T12:56:55.484Z,7.78
2023-03-05T12:59:23.829Z,9.83
2023-03-05T13:01:54.912Z,8.88
2023-03-05T13:04:26.426Z,7.68
2023-03-05T13:07:05.181Z,5.75
2023-03-05T13:09:35.645Z,5.47
2023-03-05T13:12:04.428Z,6.85
2023-03-05T13:14:42.771Z,7.22
2023-03-05T13:17:31.889Z,7.07
2023-03-05T13:20:00.073Z,7.22
2023-03-05T13:22:26.843Z,11.38
2023-03-05T13:25:13.855Z,10.77
2023-03-05T13:27:40.306Z,10.45
2023-03-05T13:30:20.640Z,9.68
2023-03-05T13:32:50.703Z,11.73
2023-03-05T13:35:17.356Z,8.55
2023-03-05T13:37:44.209Z,11.55
2023-03-05T13:40:23.910Z,9.90
2023-03-05T13:42:51.020Z,10.02
2023-03-05T13:45:26.158Z,9.55
2023-03-05T13:48:01.097Z,9.57
2023-03-05T13:50:30.756Z,9.70
2023-03-05T13:53:19.029Z,8.20
2023-03-05T13:55:46.740Z,11.10
2023-03-05T13:58:52.125Z,9.70
2023-03-05T14:01:24.794Z,8.65
2023-03-05T14:03:53.895Z,10.10
2023-03-05T14:06:22.043Z,10.38
2023-03-05T14:08:51.152Z,9.07
2023-03-05T14:11:18.700Z,9.52
2023-03-05T14:13:46.232Z,9.27
2023-03-05T14:16:15.855Z,6.45
2023-03-05T14:18:56.604Z,6.85
2023-03-05T14:21:23.614Z,7.65
2023-03-05T14:23:52.855Z,6.57
2023-03-05T14:28:51.504Z,5.68
2023-03-05T14:31:18.487Z,5.35
2023-03-05T14:33:45.150Z,4.80
2023-03-05T14:36:11.793Z,9.60
2023-03-05T14:38:42.959Z,5.50
2023-03-05T14:41:29.574Z,6.93
2023-03-05T14:43:56.336Z,6.30
2023-03-05T14:46:22.845Z,7.13
2023-03-05T14:48:49.295Z,7.03
2023-03-05T14:51:15.790Z,7.43
2023-03-05T14:53:47.597Z,6.97
2023-03-05T14:56:26.227Z,9.77
2023-03-05T14:58:52.913Z,9.27
2023-03-05T15:01:19.346Z,6.97
2023-03-05T15:03:45.807Z,7.13
2023-03-05T15:06:25.595Z,9.80
2023-03-05T15:08:52.905Z,11.13
2023-03-05T15:11:19.345Z,11.55
2023-03-05T15:13:45.761Z,9.48
2023-03-05T15:16:15.538Z,11.13
2023-03-05T15:18:42.008Z,9.30
2023-03-05T15:21:08.508Z,10.55
2023-03-05T15:23:38.079Z,10.00
2023-03-05T15:26:07.178Z,8.35
2023-03-05T15:28:35.912Z,10.27
2023-03-05T15:31:02.671Z,10.13
2023-03-05T15:33:29.600Z,10.25
2023-03-05T15:35:56.110Z,8.88
2023-03-05T15:38:23.004Z,11.93
2023-03-05T15:40:50.331Z,8.93
2023-03-05T15:43:18.528Z,14.02
2023-03-05T15:45:45.388Z,9.63
2023-03-05T15:48:12.330Z,10.10
2023-03-05T15:50:43.436Z,11.55
2023-03-05T15:53:12.228Z,9.48
2023-03-05T15:55:39.957Z,10.02
2023-03-05T15:58:06.990Z,10.27
2023-03-05T16:00:35.025Z,10.07
2023-03-05T16:03:01.480Z,8.10
2023-03-05T16:05:28.075Z,9.07
2023-03-05T16:07:54.985Z,9.23
2023-03-05T16:10:25.126Z,8.40
2023-03-05T16:12:55.766Z,8.18
2023-03-05T16:15:22.583Z,10.25
2023-03-05T16:17:53.414Z,8.68
2023-03-05T16:20:20.812Z,8.23
2023-03-05T16:22:47.290Z,7.20
2023-03-05T16:25:13.750Z,7.95
2023-03-05T16:27:40.189Z,9.13
2023-03-05T16:30:07.660Z,10.30
2023-03-05T16:32:34.119Z,11.45
2023-03-05T16:35:00.661Z,11.93
2023-03-05T16:37:27.129Z,10.88
2023-03-05T16:39:57.759Z,7.57
2023-03-05T16:42:24.309Z,8.10
2023-03-05T16:44:51.625Z,9.52
2023-03-05T16:47:18.025Z,7.63
2023-03-05T16:49:44.483Z,12.00
2023-03-05T16:52:18.729Z,11.25
2023-03-05T16:54:45.989Z,9.68
2023-03-05T16:57:12.536Z,9.57
2023-03-05T16:59:39.101Z,11.52
2023-03-05T17:02:05.782Z,15.15
2023-03-05T17:04:33.688Z,14.43
2023-03-05T17:07:00.760Z,12.38
2023-03-05T17:09:27.204Z,8.23
2023-03-05T17:11:54.300Z,10.65
2023-03-05T17:14:21.181Z,11.93
2023-03-05T17:16:48.244Z,10.43
2023-03-05T17:19:15.564Z,12.48
2023-03-05T17:21:42.728Z,10.95
2023-03-05T17:24:10.014Z,10.85
2023-03-05T17:26:36.549Z,13.82
2023-03-05T17:29:04.882Z,10.85
2023-03-05T17:31:31.541Z,9.18
2023-03-05T17:33:58.210Z,10.05
2023-03-05T17:36:25.206Z,8.77
2023-03-05T17:38:53.652Z,9.52
2023-03-05T17:41:20.407Z,9.93
2023-03-05T17:43:46.798Z,10.30
2023-03-05T17:46:13.645Z,10.18
2023-03-05T17:48:40.383Z,7.70
2023-03-05T17:51:08.343Z,9.70
2023-03-05T17:53:35.198Z,8.05
2023-03-05T17:56:02.040Z,13.18
2023-03-05T17:58:28.590Z,11.35
2023-03-05T18:00:55.234Z,8.10
2023-03-05T18:03:21.899Z,12.05
2023-03-05T18:05:48.449Z,10.40
2023-03-05T18:08:15.023Z,12.60
2023-03-05T18:10:41.505Z,13.57
2023-03-05T18:13:10.337Z,8.82
2023-03-05T18:15:40.393Z,9.75
2023-03-05T18:18:07.464Z,9.27
2023-03-05T18:20:36.468Z,10.80
2023-03-05T18:23:04.722Z,8.82
2023-03-05T18:25:31.911Z,10.07
2023-03-05T18:28:03.808Z,7.18
2023-03-05T18:30:30.558Z,10.82
2023-03-05T18:32:57.300Z,11.23
2023-03-05T18:35:24.439Z,24.70
2023-03-05T18:37:51.016Z,17.17
2023-03-05T18:40:20.217Z,28.85
2023-03-05T18:42:46.715Z,30.10
2023-03-05T18:45:15.167Z,23.85
2023-03-05T18:47:43.826Z,42.40
2023-03-05T18:50:12.034Z,48.75
2023-03-05T18:52:38.474Z,55.53
2023-03-05T18:55:05.423Z,126.40
2023-03-05T18:57:32.170Z,62.65
2023-03-05T18:59:58.706Z,78.63
2023-03-05T19:02:25.225Z,49.08
2023-03-05T19:04:51.704Z,78.07
2023-03-05T19:07:18.183Z,63.28
2023-03-05T19:09:53.593Z,52.22
2023-03-05T19:12:22.242Z,21.05
2023-03-05T19:14:48.844Z,16.23
2023-03-05T19:17:15.854Z,12.05
2023-03-05T19:19:45.344Z,11.80
2023-03-05T19:22:12.030Z,9.55
2023-03-05T19:24:38.750Z,9.82
2023-03-05T19:27:10.986Z,11.45
2023-03-05T19:29:38.416Z,9.75
2023-03-05T19:32:05.306Z,12.88
2023-03-05T19:34:32.458Z,8.32
2023-03-05T19:36:59.260Z,10.07
2023-03-05T19:39:25.907Z,10.70
2023-03-05T19:41:52.598Z,8.63
2023-03-05T19:44:19.369Z,8.93
2023-03-05T19:46:48.324Z,10.35
2023-03-05T19:49:16.468Z,10.73
2023-03-05T19:51:43.914Z,10.23
2023-03-05T19:54:11.728Z,9.90
2023-03-05T19:56:39.145Z,9.73
2023-03-05T19:59:06.192Z,9.38
2023-03-05T20:01:33.161Z,10.40
2023-03-05T20:04:01.937Z,11.75
2023-03-05T20:06:30.231Z,8.88
2023-03-05T20:08:57.245Z,10.27
2023-03-05T20:11:24.804Z,9.68
2023-03-05T20:13:52.106Z,9.50
2023-03-05T20:16:22.674Z,9.82
2023-03-05T20:18:54.612Z,8.35
2023-03-05T20:21:24.212Z,8.30
2023-03-05T20:23:52.053Z,9.85
2023-03-05T20:26:19.506Z,9.05
2023-03-05T20:28:46.047Z,7.60
2023-03-05T20:31:12.662Z,8.52
2023-03-05T20:33:39.386Z,9.48
2023-03-05T20:36:06.380Z,7.97
2023-03-05T20:38:32.930Z,7.57
2023-03-05T20:41:08.490Z,8.38
2023-03-05T20:43:37.467Z,8.40
2023-03-05T20:46:04.739Z,9.75
2023-03-05T20:48:33.554Z,10.88
2023-03-05T20:51:11.189Z,9.05
2023-03-05T20:53:37.827Z,9.43
2023-03-05T20:56:04.516Z,8.00
2023-03-05T20:58:31.040Z,10.75
2023-03-05T21:00:57.685Z,9.00
2023-03-05T21:03:25.687Z,8.77
2023-03-05T21:05:55.683Z,8.25
2023-03-05T21:08:22.406Z,10.63
2023-03-05T21:10:48.903Z,12.25
2023-03-05T21:13:15.467Z,8.20
2023-03-05T21:15:42.035Z,7.25
2023-03-05T21:18:08.554Z,8.38
2023-03-05T21:20:35.036Z,8.85
2023-03-05T21:23:01.870Z,10.23
2023-03-05T21:25:30.939Z,9.50
2023-03-05T21:28:08.649Z,8.75
2023-03-05T21:30:39.290Z,10.65
2023-03-05T21:33:11.325Z,7.88
2023-03-05T21:35:38.312Z,9.65
2023-03-05T21:38:06.641Z,7.95
2023-03-05T21:40:34.216Z,7.65
2023-03-05T21:43:00.848Z,8.55
2023-03-05T21:45:28.703Z,9.43
2023-03-05T21:47:56.227Z,7.90
2023-03-05T21:50:23.760Z,10.23
2023-03-05T21:52:50.768Z,9.13
2023-03-05T21:55:22.425Z,8.43
2023-03-05T21:57:49.151Z,8.43
2023-03-05T22:00:18.175Z,9.73
2023-03-05T22:02:45.768Z,10.38
2023-03-05T22:05:13.382Z,9.63
2023-03-05T22:07:40.190Z,7.22
2023-03-05T22:10:07.320Z,8.40
2023-03-05T22:12:58.870Z,6.25
2023-03-05T22:15:25.666Z,8.02
2023-03-05T22:17:52.220Z,8.05
2023-03-05T22:20:19.361Z,6.40
2023-03-05T22:22:45.947Z,10.80
2023-03-05T22:25:14.629Z,8.10
2023-03-05T22:27:42.153Z,9.65
2023-03-05T22:30:10.136Z,9.02
2023-03-05T22:32:37.298Z,7.90
2023-03-05T22:35:05.237Z,7.25
2023-03-05T22:37:32.554Z,9.55
2023-03-05T22:39:59.259Z,9.48
2023-03-05T22:42:25.832Z,8.35
2023-03-05T22:44:57.450Z,11.32
2023-03-05T22:47:25.003Z,8.30
2023-03-05T22:49:51.661Z,7.90
2023-03-05T22:52:18.185Z,8.75
2023-03-05T22:54:44.811Z,8.77
2023-03-05T22:57:11.580Z,8.63
2023-03-05T22:59:38.110Z,11.02
2023-03-05T23:02:04.877Z,9.93
2023-03-05T23:04:50.442Z,7.85
2023-03-05T23:07:27.502Z,7.47
2023-03-05T23:09:56.246Z,8.38
2023-03-05T23:12:24.354Z,7.25
2023-03-05T23:14:51.053Z,7.05
2023-03-05T23:17:17.821Z,7.95
2023-03-05T23:19:44.326Z,8.70
2023-03-05T23:22:12.511Z,7.70
2023-03-05T23:24:39.757Z,8.18
2023-03-05T23:27:07.082Z,6.85
2023-03-05T23:29:47.201Z,9.13
2023-03-05T23:32:13.848Z,7.82
2023-03-05T23:34:40.442Z,9.30
2023-03-05T23:37:07.420Z,9.52
2023-03-05T23:39:33.972Z,7.40
2023-03-05T23:42:00.528Z,9.68
2023-03-05T23:44:27.003Z,7.05
2023-03-05T23:46:53.613Z,8.43
2023-03-05T23:49:20.122Z,8.52
2023-03-05T23:51:46.611Z,8.07
2023-03-05T23:54:13.218Z,9.52
2023-03-05T23:56:39.741Z,7.72
2023-03-05T23:59:07.646Z,8.40
